CMA CGM Thalassa — 5BNE2 — position and weather

sailwx.info

Track history (hours):
 
Tides and Currents Weather Stations Pressure Air Temp Water Temp Dewpoint Dewpoint Depression Visibility Wind Speed Wind Dir Waves Ship Positions

CMA CGM Thalassa

Last reported at 2016-Aug-26 04:31 UTC. Time now 2016-Aug-30 09:06 UTC.
Position N 24°09' E 118°52'.

Length 347 m; draft 10 m.

Type: Ship (hazmat cat A). MMSI: 212151000.

Date/timePositionNaut miles runAvg speedWind from/ knotsBaromVisibWave heightAir tempDewpointWater temp
2016-Aug-26 04:31N 24°09' E 118°52'2121.6
2016-Aug-26 03:32N 23°55' E 118°35'2221.0
2016-Aug-26 02:29N 23°42' E 118°15'2620.5
2016-Aug-26 01:13N 23°27' E 117°51'203 5.0
2016-Aug-24 08:33N 22°14' E 114°26'18 2.0
2016-Aug-23 23:24N 22°20' E 114°07'0 0.0
2016-Aug-23 22:24N 22°20' E 114°07'0 0.0
2016-Aug-23 20:29N 22°20' E 114°07'0 0.0
2016-Aug-23 19:16N 22°20' E 114°07'0 0.0
2016-Aug-23 18:22N 22°20' E 114°07'0 0.0
2016-Aug-23 17:16N 22°20' E 114°07'0 0.0
2016-Aug-23 16:21N 22°20' E 114°07'0 0.0
2016-Aug-23 15:21N 22°20' E 114°07'0 0.0
2016-Aug-23 09:05N 22°20' E 114°07'1 1.0
2016-Aug-23 08:33N 22°20' E 114°07'20 4.6
2016-Aug-23 04:13N 22°07' E 113°51'812.7
2016-Aug-23 03:33N 22°15' E 113°49'13 0.8
2016-Aug-22 11:10N 22°28' E 113°45'914.5
2016-Aug-22 10:33N 22°19' E 113°48'31 7.4
2016-Aug-22 06:20N 22°08' E 114°19'20814.8
2016-Aug-21 16:20N 23°25' E 117°49'1114.4
2016-Aug-21 15:32N 23°33' E 117°57'1614.3
2016-Aug-21 14:26N 23°45' E 118°08'1213.9
2016-Aug-21 13:33N 23°55' E 118°16'1312.9
2016-Aug-21 12:33N 24°06' E 118°23'1313.4
2016-Aug-21 11:33N 24°17' E 118°14'1312.8
2016-Aug-21 10:33N 24°26' E 118°04'3 2.6
2016-Aug-21 09:30N 24°27' E 118°01'0 0.0
2016-Aug-21 08:29N 24°27' E 118°01'0 0.0
2016-Aug-21 07:29N 24°27' E 118°01'0 0.0
2016-Aug-21 06:33N 24°27' E 118°01'0 0.0
2016-Aug-21 05:33N 24°27' E 118°01'0 0.0
2016-Aug-21 04:32N 24°27' E 118°01'0 0.0
2016-Aug-21 03:26N 24°27' E 118°01'0 0.0
2016-Aug-21 02:32N 24°27' E 118°01'0 0.0
2016-Aug-21 01:31N 24°27' E 118°01'0 0.0
2016-Aug-21 00:28N 24°27' E 118°01'0 0.0
2016-Aug-20 23:30N 24°27' E 118°01'0 0.0
2016-Aug-20 22:33N 24°27' E 118°01'0 0.0
2016-Aug-20 21:32N 24°27' E 118°01'0 0.0
2016-Aug-20 20:29N 24°27' E 118°01'0 0.0
2016-Aug-20 19:26N 24°27' E 118°01'0 0.0
2016-Aug-20 18:28N 24°27' E 118°01'0 0.0
2016-Aug-20 17:28N 24°27' E 118°01'0 0.0
2016-Aug-20 16:33N 24°27' E 118°01'0 0.0
2016-Aug-20 15:33N 24°27' E 118°01'1 0.6
2016-Aug-20 14:33N 24°26' E 118°02'10 9.9
2016-Aug-20 13:33N 24°21' E 118°10'1613.5
2016-Aug-20 12:23N 24°11' E 118°24'3619.7
2016-Aug-20 10:33N 24°20' E 119°03'2020.2
2016-Aug-20 09:33N 24°31' E 119°21'2019.7
2016-Aug-20 08:33N 24°43' E 119°38'2020.0
2016-Aug-20 07:34N 25°02' E 119°45'34 2.0
2016-Aug-19 14:24N 25°25' E 119°17'0 0.0
2016-Aug-19 13:24N 25°25' E 119°17'0 0.0
2016-Aug-19 12:29N 25°25' E 119°17'0 0.0
2016-Aug-19 11:29N 25°25' E 119°17'0 0.3
2016-Aug-19 10:33N 25°25' E 119°17'9 9.3
2016-Aug-19 09:34N 25°20' E 119°25'1111.1
2016-Aug-19 08:33N 25°17' E 119°37'10 9.7
2016-Aug-19 07:33N 25°13' E 119°47'  
Track history (hours):
 
Tides and Currents Weather Stations Pressure Air Temp Water Temp Dewpoint Dewpoint Depression Visibility Wind Speed Wind Dir Waves Ship Positions

CMA CGM Thalassa

Last reported at 2016-Aug-26 04:31 UTC. Time now 2016-Aug-30 09:06 UTC.
Position N 24°09' E 118°52'.

Length 347 m; draft 10 m.

Type: Ship (hazmat cat A). MMSI: 212151000.

Date/timePositionNaut miles runAvg speedWind from/ knotsBaromVisibWave heightAir tempDewpointWater temp
2016-Aug-26 04:31N 24°09' E 118°52'2121.6
2016-Aug-26 03:32N 23°55' E 118°35'2221.0
2016-Aug-26 02:29N 23°42' E 118°15'2620.5
2016-Aug-26 01:13N 23°27' E 117°51'203 5.0
2016-Aug-24 08:33N 22°14' E 114°26'18 2.0
2016-Aug-23 23:24N 22°20' E 114°07'0 0.0
2016-Aug-23 22:24N 22°20' E 114°07'0 0.0
2016-Aug-23 20:29N 22°20' E 114°07'0 0.0
2016-Aug-23 19:16N 22°20' E 114°07'0 0.0
2016-Aug-23 18:22N 22°20' E 114°07'0 0.0
2016-Aug-23 17:16N 22°20' E 114°07'0 0.0
2016-Aug-23 16:21N 22°20' E 114°07'0 0.0
2016-Aug-23 15:21N 22°20' E 114°07'0 0.0
2016-Aug-23 09:05N 22°20' E 114°07'1 1.0
2016-Aug-23 08:33N 22°20' E 114°07'20 4.6
2016-Aug-23 04:13N 22°07' E 113°51'812.7
2016-Aug-23 03:33N 22°15' E 113°49'13 0.8
2016-Aug-22 11:10N 22°28' E 113°45'914.5
2016-Aug-22 10:33N 22°19' E 113°48'31 7.4
2016-Aug-22 06:20N 22°08' E 114°19'20814.8
2016-Aug-21 16:20N 23°25' E 117°49'1114.4
2016-Aug-21 15:32N 23°33' E 117°57'1614.3
2016-Aug-21 14:26N 23°45' E 118°08'1213.9
2016-Aug-21 13:33N 23°55' E 118°16'1312.9
2016-Aug-21 12:33N 24°06' E 118°23'1313.4
2016-Aug-21 11:33N 24°17' E 118°14'1312.8
2016-Aug-21 10:33N 24°26' E 118°04'3 2.6
2016-Aug-21 09:30N 24°27' E 118°01'0 0.0
2016-Aug-21 08:29N 24°27' E 118°01'0 0.0
2016-Aug-21 07:29N 24°27' E 118°01'0 0.0
2016-Aug-21 06:33N 24°27' E 118°01'0 0.0
2016-Aug-21 05:33N 24°27' E 118°01'0 0.0
2016-Aug-21 04:32N 24°27' E 118°01'0 0.0
2016-Aug-21 03:26N 24°27' E 118°01'0 0.0
2016-Aug-21 02:32N 24°27' E 118°01'0 0.0
2016-Aug-21 01:31N 24°27' E 118°01'0 0.0
2016-Aug-21 00:28N 24°27' E 118°01'0 0.0
2016-Aug-20 23:30N 24°27' E 118°01'0 0.0
2016-Aug-20 22:33N 24°27' E 118°01'0 0.0
2016-Aug-20 21:32N 24°27' E 118°01'0 0.0
2016-Aug-20 20:29N 24°27' E 118°01'0 0.0
2016-Aug-20 19:26N 24°27' E 118°01'0 0.0
2016-Aug-20 18:28N 24°27' E 118°01'0 0.0
2016-Aug-20 17:28N 24°27' E 118°01'0 0.0
2016-Aug-20 16:33N 24°27' E 118°01'0 0.0
2016-Aug-20 15:33N 24°27' E 118°01'1 0.6
2016-Aug-20 14:33N 24°26' E 118°02'10 9.9
2016-Aug-20 13:33N 24°21' E 118°10'1613.5
2016-Aug-20 12:23N 24°11' E 118°24'3619.7
2016-Aug-20 10:33N 24°20' E 119°03'2020.2
2016-Aug-20 09:33N 24°31' E 119°21'2019.7
2016-Aug-20 08:33N 24°43' E 119°38'2020.0
2016-Aug-20 07:34N 25°02' E 119°45'34 2.0
2016-Aug-19 14:24N 25°25' E 119°17'0 0.0
2016-Aug-19 13:24N 25°25' E 119°17'0 0.0
2016-Aug-19 12:29N 25°25' E 119°17'0 0.0
2016-Aug-19 11:29N 25°25' E 119°17'0 0.3
2016-Aug-19 10:33N 25°25' E 119°17'9 9.3
2016-Aug-19 09:34N 25°20' E 119°25'1111.1
2016-Aug-19 08:33N 25°17' E 119°37'10 9.7
2016-Aug-19 07:33N 25°13' E 119°47'  

Dump ship's entire track history